Time;durP1;ratioP1;P1;durP2;ratioP2;P2;SDS_P1;SDS_P2;PMS_P1;PMS_P2;Temp;Humidity;BMP_temperature;BMP_pressure;BME280_temperature;BME280_humidity;BME280_pressure;Samples;Min_cycle;Max_cycle;Signal;HPM_P1;HPM_P2
2021/12/15 00:02:19;;;;;;;32.30;20.10;;;9.70;99.90;;;;;;5044757;28;20492;-83
2021/12/15 00:04:47;;;;;;;28.90;19.17;;;9.70;99.90;;;;;;5049241;28;20457;-82
2021/12/15 00:07:14;;;;;;;26.00;18.27;;;9.80;99.90;;;;;;5035124;28;20451;-82
2021/12/15 00:09:41;;;;;;;28.30;18.80;;;9.80;99.90;;;;;;5041522;28;20663;-82
2021/12/15 00:12:09;;;;;;;27.57;17.67;;;9.80;99.90;;;;;;5047722;28;20463;-82
2021/12/15 00:14:36;;;;;;;27.67;18.23;;;9.70;99.90;;;;;;5045909;28;20533;-83
2021/12/15 00:17:03;;;;;;;28.67;18.43;;;9.60;99.90;;;;;;5046548;28;20450;-83
2021/12/15 00:19:31;;;;;;;28.37;19.17;;;9.70;99.90;;;;;;5048243;28;20463;-83
2021/12/15 00:21:59;;;;;;;30.20;17.30;;;9.70;99.90;;;;;;5046359;28;20517;-82
2021/12/15 00:24:26;;;;;;;25.77;17.47;;;9.80;99.90;;;;;;5047342;28;20829;-83
2021/12/15 00:26:54;;;;;;;26.10;18.00;;;9.80;99.90;;;;;;5045783;28;20566;-83
2021/12/15 00:29:21;;;;;;;26.20;18.07;;;9.80;99.90;;;;;;5045841;28;20447;-83
2021/12/15 00:31:48;;;;;;;25.43;17.60;;;9.70;99.90;;;;;;5045792;28;20457;-84
2021/12/15 00:34:16;;;;;;;25.27;17.80;;;9.80;99.90;;;;;;5045719;28;20447;-83
2021/12/15 00:36:45;;;;;;;26.20;16.20;;;9.70;99.90;;;;;;5042194;28;20474;-83
2021/12/15 00:39:16;;;;;;;24.50;15.40;;;9.80;99.90;;;;;;5040057;28;20471;-82
2021/12/15 00:41:44;;;;;;;24.13;15.83;;;9.80;99.90;;;;;;5037609;28;20447;-83
2021/12/15 00:44:11;;;;;;;21.30;14.13;;;9.80;99.90;;;;;;5033875;28;20556;-83
2021/12/15 00:46:39;;;;;;;20.50;14.60;;;9.80;99.90;;;;;;5037367;28;20441;-82
2021/12/15 00:49:08;;;;;;;26.27;14.27;;;9.80;99.90;;;;;;5042250;28;20464;-83
2021/12/15 00:51:35;;;;;;;24.17;14.10;;;9.80;99.90;;;;;;5035424;28;20460;-82
2021/12/15 00:54:05;;;;;;;18.37;12.70;;;9.80;99.90;;;;;;5035895;28;20538;-80
2021/12/15 00:56:32;;;;;;;21.60;13.43;;;9.80;99.90;;;;;;5039186;28;20438;-82
2021/12/15 00:58:59;;;;;;;18.10;13.00;;;9.80;99.90;;;;;;5041214;28;20459;-80
2021/12/15 01:01:27;;;;;;;19.10;13.20;;;9.70;99.90;;;;;;5039501;28;20544;-81
2021/12/15 01:03:54;;;;;;;19.30;12.67;;;9.70;99.90;;;;;;5055761;28;20484;-82
2021/12/15 01:06:21;;;;;;;21.80;12.13;;;9.60;99.90;;;;;;5039788;28;20978;-82
2021/12/15 01:08:55;;;;;;;17.40;11.67;;;9.70;99.90;;;;;;5049426;28;20815;-81
2021/12/15 01:11:33;;;;;;;18.40;11.37;;;9.70;99.90;;;;;;5044701;28;20453;-81
2021/12/15 01:19:51;;;;;;;16.57;11.20;;;9.60;99.90;;;;;;5042063;28;20465;-82
2021/12/15 01:22:25;;;;;;;17.37;12.30;;;9.60;99.90;;;;;;5039763;28;20471;-81
2021/12/15 01:24:53;;;;;;;20.37;12.47;;;9.60;99.90;;;;;;5038890;28;20915;-82
2021/12/15 01:27:22;;;;;;;19.40;12.10;;;9.60;99.90;;;;;;5038834;28;20492;-80
2021/12/15 01:29:49;;;;;;;16.87;12.10;;;9.50;99.90;;;;;;5040174;28;20462;-82
2021/12/15 01:32:18;;;;;;;17.33;10.70;;;9.50;99.90;;;;;;5039240;28;20569;-79
2021/12/15 01:34:45;;;;;;;19.00;11.20;;;9.60;99.90;;;;;;5041516;28;20446;-81
2021/12/15 01:37:13;;;;;;;17.73;11.80;;;9.60;99.90;;;;;;5040549;28;20513;-81
2021/12/15 01:39:40;;;;;;;17.80;11.83;;;9.60;99.90;;;;;;5041181;28;20462;-81
2021/12/15 01:42:08;;;;;;;17.50;10.63;;;9.70;99.90;;;;;;5040455;28;20551;-82
2021/12/15 01:47:21;;;;;;;16.13;11.70;;;9.70;99.90;;;;;;5040965;28;20456;-81
2021/12/15 01:49:51;;;;;;;15.10;11.03;;;9.70;99.90;;;;;;5041987;28;20455;-81
2021/12/15 01:52:22;;;;;;;20.20;10.13;;;9.70;99.90;;;;;;5042164;28;20470;-81
2021/12/15 01:54:53;;;;;;;13.80;9.40;;;9.70;99.90;;;;;;5040072;28;20449;-81
2021/12/15 01:57:23;;;;;;;14.30;10.60;;;9.70;99.90;;;;;;5037176;28;20517;-81
2021/12/15 01:59:53;;;;;;;13.70;9.90;;;9.70;99.90;;;;;;5040245;28;20445;-81
2021/12/15 02:02:21;;;;;;;15.97;11.83;;;9.60;99.90;;;;;;5041074;28;20471;-81
2021/12/15 02:04:49;;;;;;;21.73;12.23;;;9.50;99.90;;;;;;5044282;28;20463;-82
2021/12/15 02:07:18;;;;;;;20.20;12.37;;;9.50;99.90;;;;;;5046071;28;20454;-82
2021/12/15 02:12:37;;;;;;;17.57;11.77;;;9.40;99.90;;;;;;5044093;28;20461;-81
2021/12/15 02:15:11;;;;;;;17.03;12.33;;;9.30;99.90;;;;;;5032950;28;20458;-80
2021/12/15 02:17:39;;;;;;;19.07;12.33;;;9.40;99.90;;;;;;5035812;28;20458;-80
2021/12/15 02:20:09;;;;;;;17.33;11.23;;;9.40;99.90;;;;;;5038430;28;20951;-81
2021/12/15 02:22:37;;;;;;;17.40;11.70;;;9.40;99.90;;;;;;5041675;28;20506;-82
2021/12/15 02:25:08;;;;;;;18.03;11.50;;;9.50;99.90;;;;;;5042861;28;20797;-82
2021/12/15 02:27:35;;;;;;;20.73;12.50;;;9.50;99.90;;;;;;5042692;28;20536;-82
2021/12/15 02:30:18;;;;;;;19.23;12.27;;;9.50;99.90;;;;;;5029083;28;20500;-83
2021/12/15 02:32:57;;;;;;;16.20;11.83;;;9.60;99.90;;;;;;5040968;28;20474;-82
2021/12/15 02:38:09;;;;;;;21.60;14.03;;;9.50;99.90;;;;;;5039378;28;20441;-81
2021/12/15 02:40:38;;;;;;;19.93;13.57;;;9.50;99.90;;;;;;5039508;28;20449;-82
2021/12/15 02:43:05;;;;;;;20.40;13.37;;;9.50;99.90;;;;;;5039337;28;20490;-82
2021/12/15 02:45:33;;;;;;;18.07;12.10;;;9.50;99.90;;;;;;5039864;28;20463;-83
2021/12/15 02:47:59;;;;;;;21.57;13.30;;;9.50;99.90;;;;;;5039349;28;20450;-81
2021/12/15 02:50:29;;;;;;;22.03;15.50;;;9.40;99.90;;;;;;5039241;28;20467;-82
2021/12/15 02:52:58;;;;;;;20.87;15.27;;;9.50;99.90;;;;;;5040635;28;20475;-82
2021/12/15 02:55:26;;;;;;;17.77;12.40;;;9.50;99.90;;;;;;5038690;28;20453;-82
2021/12/15 02:57:54;;;;;;;18.07;12.40;;;9.50;99.90;;;;;;5036810;28;20463;-82
2021/12/15 03:00:24;;;;;;;23.70;14.33;;;9.60;99.90;;;;;;5038096;28;20462;-82
2021/12/15 03:05:41;;;;;;;21.27;13.67;;;9.60;99.90;;;;;;5034341;28;20452;-81
2021/12/15 03:08:12;;;;;;;22.13;15.40;;;9.50;99.90;;;;;;5037567;28;20533;-81
2021/12/15 03:16:12;;;;;;;19.90;13.97;;;9.40;99.90;;;;;;5036645;28;20528;-82
2021/12/15 03:18:39;;;;;;;24.10;14.97;;;9.40;99.90;;;;;;5037518;28;20458;-82
2021/12/15 03:21:09;;;;;;;26.10;14.93;;;9.50;99.90;;;;;;5030497;28;20470;-82
2021/12/15 03:23:45;;;;;;;19.60;12.80;;;9.30;99.90;;;;;;5038854;28;20493;-82
2021/12/15 03:26:18;;;;;;;22.83;14.17;;;9.40;99.90;;;;;;5031244;28;20489;-81
2021/12/15 03:34:36;;;;;;;21.40;13.80;;;9.50;99.90;;;;;;5030163;28;20871;-82
2021/12/15 03:37:20;;;;;;;22.67;15.80;;;9.50;99.90;;;;;;5038146;28;20457;-82
2021/12/15 03:39:47;;;;;;;19.00;14.53;;;9.50;99.90;;;;;;5038550;28;20452;-80
2021/12/15 03:42:19;;;;;;;21.40;13.23;;;9.50;99.90;;;;;;5036322;28;20564;-82
2021/12/15 03:44:47;;;;;;;25.43;14.20;;;9.50;99.90;;;;;;5035672;28;20528;-81
2021/12/15 03:47:25;;;;;;;20.00;13.10;;;9.40;99.90;;;;;;5039694;28;20450;-80
2021/12/15 03:49:53;;;;;;;21.03;13.50;;;9.50;99.90;;;;;;5023977;28;20647;-81
2021/12/15 03:52:21;;;;;;;20.37;14.03;;;9.50;99.90;;;;;;5041856;28;20462;-81
2021/12/15 03:54:49;;;;;;;22.27;15.47;;;9.60;99.90;;;;;;5042386;28;20457;-80
2021/12/15 03:57:20;;;;;;;20.87;12.30;;;9.50;99.90;;;;;;5041937;28;20453;-82
2021/12/15 03:59:47;;;;;;;17.20;12.47;;;9.40;99.90;;;;;;5023807;28;20501;-81
2021/12/15 04:02:18;;;;;;;19.70;14.23;;;9.50;99.90;;;;;;5039557;28;20492;-82
2021/12/15 04:04:46;;;;;;;22.00;14.20;;;9.40;99.90;;;;;;5039465;28;20492;-81
2021/12/15 04:07:15;;;;;;;20.87;12.73;;;9.50;99.90;;;;;;5040340;28;20450;-81
2021/12/15 04:09:43;;;;;;;18.93;13.70;;;9.50;99.90;;;;;;5040443;28;20470;-82
2021/12/15 04:12:11;;;;;;;23.50;12.83;;;9.50;99.90;;;;;;5042053;28;20469;-83
2021/12/15 04:14:45;;;;;;;22.43;14.70;;;9.50;99.90;;;;;;5039259;28;20480;-82
2021/12/15 04:17:26;;;;;;;17.93;12.97;;;9.50;99.90;;;;;;5024688;28;20453;-82
2021/12/15 04:19:56;;;;;;;19.90;14.00;;;9.50;99.90;;;;;;5020325;28;20455;-81
2021/12/15 04:22:25;;;;;;;16.20;11.50;;;9.50;99.90;;;;;;5024989;28;20989;-81
2021/12/15 04:24:52;;;;;;;17.83;12.40;;;9.60;99.90;;;;;;5039572;28;20481;-82
2021/12/15 04:27:20;;;;;;;20.10;13.10;;;9.70;99.90;;;;;;5039120;28;20474;-82
2021/12/15 04:29:49;;;;;;;23.70;15.00;;;9.60;99.90;;;;;;5040020;28;20451;-81
2021/12/15 04:32:21;;;;;;;17.30;13.27;;;9.50;99.90;;;;;;5040534;28;20470;-81
2021/12/15 04:34:48;;;;;;;22.63;13.77;;;9.60;99.90;;;;;;5037509;28;20953;-81
2021/12/15 04:37:15;;;;;;;24.63;15.70;;;9.60;99.90;;;;;;5040617;28;20454;-81
2021/12/15 04:39:42;;;;;;;21.30;14.00;;;9.50;99.90;;;;;;5039869;28;20458;-81
2021/12/15 04:42:11;;;;;;;21.03;14.70;;;9.60;99.90;;;;;;5039636;28;20487;-81
2021/12/15 04:44:37;;;;;;;21.40;15.13;;;9.50;99.90;;;;;;5040833;28;20494;-82
2021/12/15 04:47:09;;;;;;;26.70;15.27;;;9.50;99.90;;;;;;5038371;28;20837;-81
2021/12/15 04:49:40;;;;;;;24.70;14.50;;;9.50;99.90;;;;;;5039586;28;20542;-81
2021/12/15 04:52:11;;;;;;;20.40;13.43;;;9.50;99.90;;;;;;5039494;28;20458;-82
2021/12/15 04:54:38;;;;;;;21.83;15.60;;;9.50;99.90;;;;;;5038882;28;20471;-82
2021/12/15 04:57:06;;;;;;;20.30;13.13;;;9.40;99.90;;;;;;5037976;28;20449;-81
2021/12/15 04:59:34;;;;;;;21.63;14.20;;;9.50;99.90;;;;;;5038706;28;20458;-82
2021/12/15 05:02:01;;;;;;;25.50;15.63;;;9.50;99.90;;;;;;5038736;28;20491;-80
2021/12/15 05:04:30;;;;;;;23.80;14.17;;;9.40;99.90;;;;;;5046580;28;20481;-80
2021/12/15 05:06:58;;;;;;;21.73;15.47;;;9.40;99.90;;;;;;5053368;28;20481;-81
2021/12/15 05:09:25;;;;;;;18.77;13.67;;;9.30;99.90;;;;;;5046697;28;20472;-81
2021/12/15 05:11:53;;;;;;;21.03;13.80;;;9.50;99.90;;;;;;5038766;28;20999;-82
2021/12/15 05:14:22;;;;;;;22.13;15.00;;;9.50;99.90;;;;;;5038256;28;20881;-81
2021/12/15 05:16:50;;;;;;;21.03;14.33;;;9.50;99.90;;;;;;5037157;28;20453;-81
2021/12/15 05:19:18;;;;;;;18.67;12.63;;;9.50;99.90;;;;;;5032705;28;20463;-82
2021/12/15 05:21:48;;;;;;;20.57;14.70;;;9.60;99.90;;;;;;5037466;28;20493;-81
2021/12/15 05:24:30;;;;;;;18.33;12.83;;;9.60;99.90;;;;;;5040278;28;20491;-83
2021/12/15 05:26:58;;;;;;;20.63;13.53;;;9.60;99.90;;;;;;5038899;28;20497;-82
2021/12/15 05:29:24;;;;;;;18.20;12.93;;;9.60;99.90;;;;;;5040899;28;20458;-81
2021/12/15 05:31:51;;;;;;;22.97;14.70;;;9.60;99.90;;;;;;5039186;28;20807;-84
2021/12/15 05:34:20;;;;;;;19.67;14.10;;;9.40;99.90;;;;;;5040939;28;20509;-81
2021/12/15 05:36:48;;;;;;;20.70;13.67;;;9.50;99.90;;;;;;5039954;28;20531;-81
2021/12/15 05:39:15;;;;;;;25.73;14.33;;;9.40;99.90;;;;;;5039633;28;21027;-80
2021/12/15 05:41:42;;;;;;;20.33;12.67;;;9.40;99.90;;;;;;5036560;28;20460;-80
2021/12/15 05:44:10;;;;;;;24.33;14.43;;;9.40;99.90;;;;;;5040384;28;20495;-79
2021/12/15 05:46:37;;;;;;;20.77;13.93;;;9.40;99.90;;;;;;5038850;28;20453;-80
2021/12/15 05:49:04;;;;;;;20.40;13.00;;;9.30;99.90;;;;;;5039978;28;20453;-81
2021/12/15 05:51:32;;;;;;;25.20;13.90;;;9.30;99.90;;;;;;5038946;28;20459;-82
2021/12/15 05:54:00;;;;;;;20.40;13.93;;;9.30;99.90;;;;;;5040016;28;20474;-81
2021/12/15 05:56:27;;;;;;;20.23;14.23;;;9.30;99.90;;;;;;5040332;28;20465;-82
2021/12/15 05:58:54;;;;;;;18.60;13.77;;;9.40;99.90;;;;;;5038686;28;20450;-83
2021/12/15 06:01:21;;;;;;;15.17;12.50;;;9.50;99.90;;;;;;5019399;28;20461;-83
2021/12/15 06:03:48;;;;;;;5.67;3.83;;;9.40;99.90;;;;;;5019196;28;20486;-81
2021/12/15 06:06:15;;;;;;;10.17;7.10;;;10.50;99.90;;;;;;5036020;28;20999;-79
2021/12/15 06:08:41;;;;;;;17.77;11.70;;;10.50;99.90;;;;;;5035314;28;20455;-80
2021/12/15 06:11:10;;;;;;;13.30;10.63;;;10.60;99.90;;;;;;5035038;28;20449;-81
2021/12/15 06:13:36;;;;;;;13.87;9.33;;;10.30;99.90;;;;;;5036173;28;20471;-80
2021/12/15 06:16:05;;;;;;;19.00;13.30;;;10.20;99.90;;;;;;5035896;28;20453;-82
2021/12/15 06:18:32;;;;;;;15.13;11.47;;;9.90;99.90;;;;;;5036428;28;20454;-83
2021/12/15 06:20:59;;;;;;;17.80;11.90;;;9.90;99.90;;;;;;5035759;28;20950;-80
2021/12/15 06:23:28;;;;;;;14.17;11.03;;;9.80;99.90;;;;;;5036429;28;20999;-81
2021/12/15 06:25:57;;;;;;;16.20;12.00;;;9.80;99.90;;;;;;5036111;28;20557;-80
2021/12/15 06:28:27;;;;;;;21.50;11.73;;;9.70;99.90;;;;;;5038061;28;20461;-80
2021/12/15 06:30:56;;;;;;;17.97;12.50;;;9.70;99.90;;;;;;5052537;28;20521;-80
2021/12/15 06:33:23;;;;;;;15.93;11.70;;;9.60;99.90;;;;;;5050521;28;20461;-80
2021/12/15 06:35:53;;;;;;;19.33;11.43;;;9.50;99.90;;;;;;5035414;28;20458;-79
2021/12/15 06:38:21;;;;;;;16.60;13.63;;;9.50;99.90;;;;;;5033590;28;20450;-80
2021/12/15 06:40:48;;;;;;;16.40;12.63;;;9.50;99.90;;;;;;5032124;28;20453;-79
2021/12/15 06:43:15;;;;;;;15.93;12.47;;;9.50;99.90;;;;;;5033993;28;20820;-80
2021/12/15 06:45:57;;;;;;;14.50;11.00;;;9.40;99.90;;;;;;5020696;28;20482;-80
2021/12/15 06:59:11;;;;;;;17.50;11.83;;;9.40;99.90;;;;;;4995058;28;21200;-80
2021/12/15 07:01:39;;;;;;;16.53;12.07;;;9.40;99.90;;;;;;4994659;28;20457;-81
2021/12/15 07:04:06;;;;;;;19.70;13.30;;;9.40;99.90;;;;;;4995541;28;20498;-81
2021/12/15 07:06:32;;;;;;;14.47;11.30;;;9.50;99.90;;;;;;4994617;28;20485;-81
2021/12/15 07:08:59;;;;;;;17.90;12.43;;;9.50;99.90;;;;;;4982867;28;20462;-81
2021/12/15 07:11:26;;;;;;;16.33;11.87;;;9.50;99.90;;;;;;4981275;28;20461;-82
2021/12/15 07:13:53;;;;;;;17.87;13.80;;;9.50;99.90;;;;;;4994886;28;20474;-80
2021/12/15 07:16:20;;;;;;;17.97;12.77;;;9.50;99.90;;;;;;4994062;28;20454;-80
2021/12/15 07:18:53;;;;;;;16.10;13.20;;;9.50;99.90;;;;;;4988874;28;20479;-81
2021/12/15 07:21:23;;;;;;;17.93;12.70;;;9.50;99.90;;;;;;4989124;28;20461;-81
2021/12/15 07:23:52;;;;;;;20.37;14.07;;;9.50;99.90;;;;;;4990969;28;20472;-80
2021/12/15 07:26:20;;;;;;;19.87;12.80;;;9.50;99.90;;;;;;4993845;28;20457;-80
2021/12/15 07:28:47;;;;;;;17.23;12.93;;;9.60;99.90;;;;;;4989623;28;20529;-81
2021/12/15 07:31:15;;;;;;;17.60;12.70;;;9.60;99.90;;;;;;4991302;28;20447;-82
2021/12/15 07:33:41;;;;;;;15.30;10.80;;;9.50;99.90;;;;;;4995069;28;20483;-80
2021/12/15 07:36:10;;;;;;;13.30;11.50;;;9.50;99.90;;;;;;4992397;28;20452;-81
2021/12/15 07:38:41;;;;;;;18.43;12.80;;;9.50;99.90;;;;;;4992794;28;20455;-81
2021/12/15 07:41:17;;;;;;;14.77;11.27;;;9.40;99.90;;;;;;4988813;28;20451;-81
2021/12/15 07:43:44;;;;;;;15.87;12.10;;;9.50;99.90;;;;;;4994907;28;20482;-82
2021/12/15 07:46:12;;;;;;;15.97;11.80;;;9.50;99.90;;;;;;4994859;28;20479;-81
2021/12/15 07:48:40;;;;;;;14.90;11.60;;;9.50;99.90;;;;;;4995489;28;20529;-82
2021/12/15 07:51:10;;;;;;;16.37;13.40;;;9.50;99.90;;;;;;4993584;28;20483;-81
2021/12/15 07:53:41;;;;;;;15.20;11.90;;;9.50;99.90;;;;;;5001133;28;20478;-80
2021/12/15 07:56:08;;;;;;;17.00;12.60;;;9.50;99.90;;;;;;4990138;28;20439;-81
2021/12/15 07:58:35;;;;;;;15.70;11.53;;;9.40;99.90;;;;;;4995727;28;20454;-82
2021/12/15 08:01:04;;;;;;;16.07;12.23;;;9.50;99.90;;;;;;4996200;28;20455;-81
2021/12/15 08:03:32;;;;;;;15.33;11.10;;;9.60;99.90;;;;;;4995902;28;20484;-82
2021/12/15 08:05:59;;;;;;;19.87;13.57;;;9.50;99.90;;;;;;4991390;28;20489;-80
2021/12/15 08:08:29;;;;;;;16.20;12.10;;;9.50;99.90;;;;;;4988702;28;20461;-83
2021/12/15 08:10:56;;;;;;;19.87;13.07;;;9.40;99.90;;;;;;4986401;28;20447;-82
2021/12/15 08:13:27;;;;;;;16.90;12.33;;;9.40;99.90;;;;;;4993349;28;20474;-81
2021/12/15 08:15:54;;;;;;;16.17;12.27;;;9.50;99.90;;;;;;4986867;28;20453;-81
2021/12/15 08:18:21;;;;;;;17.33;11.70;;;9.60;99.90;;;;;;4991797;28;20451;-80
2021/12/15 08:20:50;;;;;;;16.37;11.90;;;9.50;99.90;;;;;;4994868;28;20486;-81
2021/12/15 08:23:18;;;;;;;17.80;12.73;;;9.40;99.90;;;;;;4985291;28;20485;-80
2021/12/15 08:25:46;;;;;;;19.97;13.93;;;9.60;99.90;;;;;;4984070;28;20487;-82
2021/12/15 08:28:14;;;;;;;16.63;11.93;;;9.50;99.90;;;;;;4987675;28;20540;-81
2021/12/15 08:30:44;;;;;;;18.13;13.40;;;9.50;99.90;;;;;;4992895;28;20955;-80
2021/12/15 08:33:16;;;;;;;16.83;11.80;;;9.60;99.90;;;;;;4995117;28;20490;-81
2021/12/15 08:35:46;;;;;;;20.93;12.80;;;9.60;99.90;;;;;;4990312;28;20445;-81
2021/12/15 08:38:14;;;;;;;17.00;12.77;;;9.70;99.90;;;;;;4994571;28;20538;-81
2021/12/15 08:40:43;;;;;;;16.60;12.30;;;9.70;99.90;;;;;;4995321;28;20443;-82
2021/12/15 08:43:12;;;;;;;17.40;12.40;;;9.70;99.90;;;;;;4995025;28;20476;-82
2021/12/15 08:45:42;;;;;;;19.00;14.13;;;9.70;99.90;;;;;;4994479;28;20488;-79
2021/12/15 08:48:10;;;;;;;15.77;12.37;;;9.70;99.90;;;;;;4998292;28;20454;-80
2021/12/15 08:50:45;;;;;;;21.50;14.43;;;9.80;99.90;;;;;;4997842;28;20493;-80
2021/12/15 08:53:13;;;;;;;17.90;13.10;;;9.70;99.90;;;;;;4997545;28;20495;-81
2021/12/15 08:55:40;;;;;;;14.00;10.90;;;9.70;99.90;;;;;;4997885;28;20529;-80
2021/12/15 08:58:10;;;;;;;19.77;14.47;;;9.70;99.90;;;;;;4998269;28;20459;-80
2021/12/15 09:00:40;;;;;;;19.20;13.70;;;9.70;99.90;;;;;;4998234;28;20883;-80
2021/12/15 09:03:07;;;;;;;19.27;14.30;;;9.70;99.90;;;;;;4997936;28;20476;-80
2021/12/15 09:05:34;;;;;;;28.53;15.07;;;9.60;99.90;;;;;;4998226;28;21039;-81
2021/12/15 09:08:02;;;;;;;20.00;14.90;;;9.60;99.90;;;;;;4998231;28;20486;-80
2021/12/15 09:10:31;;;;;;;20.67;15.53;;;9.60;99.90;;;;;;4997970;28;20439;-80
2021/12/15 09:12:59;;;;;;;21.17;15.77;;;9.60;99.90;;;;;;4997390;28;20474;-80
2021/12/15 09:15:26;;;;;;;23.60;15.10;;;9.60;99.90;;;;;;4998289;28;20453;-80
2021/12/15 09:17:55;;;;;;;21.30;14.60;;;9.60;99.90;;;;;;4997685;28;20971;-81
2021/12/15 09:20:24;;;;;;;21.50;15.40;;;9.70;99.90;;;;;;4998302;28;20460;-79
2021/12/15 09:22:51;;;;;;;23.03;18.30;;;9.80;99.90;;;;;;5013000;28;20564;-80
2021/12/15 09:25:19;;;;;;;24.67;16.87;;;9.70;99.90;;;;;;5012739;28;20559;-79
2021/12/15 09:27:47;;;;;;;27.17;18.30;;;9.80;99.90;;;;;;5000357;28;20452;-79
2021/12/15 09:30:20;;;;;;;21.37;15.97;;;9.80;99.90;;;;;;4994181;28;20456;-79
2021/12/15 09:32:49;;;;;;;24.20;18.77;;;9.80;99.90;;;;;;4986981;28;20567;-81
2021/12/15 09:35:19;;;;;;;22.20;15.90;;;9.80;99.90;;;;;;4996132;28;20534;-79
2021/12/15 09:37:47;;;;;;;21.90;15.70;;;9.90;99.90;;;;;;4996389;28;20975;-79
2021/12/15 09:40:18;;;;;;;20.13;15.13;;;9.90;99.90;;;;;;4994248;28;20456;-79
2021/12/15 09:42:45;;;;;;;20.33;15.30;;;9.90;99.90;;;;;;4996712;28;20550;-80
2021/12/15 09:45:26;;;;;;;22.90;17.10;;;9.90;99.90;;;;;;4996523;28;20929;-78
2021/12/15 09:48:17;;;;;;;25.00;17.17;;;10.00;99.90;;;;;;4994490;28;20461;-79
2021/12/15 10:02:04;;;;;;;22.77;15.97;;;10.00;99.90;;;;;;4995196;28;20443;-82
2021/12/15 10:04:38;;;;;;;24.50;16.40;;;9.90;99.90;;;;;;4996770;28;20451;-81
2021/12/15 10:07:20;;;;;;;21.27;16.50;;;10.00;99.90;;;;;;4994420;28;20995;-80
2021/12/15 10:17:23;;;;;;;19.23;15.37;;;10.10;99.90;;;;;;4963020;28;20490;-80
2021/12/15 10:18:14;;;;;;;20.03;14.80;;;10.10;99.90;;;;;;5000159;28;20518;-81
2021/12/15 10:20:42;;;;;;;20.90;15.20;;;10.00;99.90;;;;;;4998188;28;20509;-80
2021/12/15 10:23:15;;;;;;;23.77;16.90;;;10.00;99.90;;;;;;4999517;28;20472;-82
2021/12/15 10:25:47;;;;;;;21.47;16.93;;;9.90;99.90;;;;;;4999632;28;20539;-81
2021/12/15 10:28:16;;;;;;;21.23;15.30;;;9.90;99.90;;;;;;5000105;28;20850;-82
2021/12/15 10:30:46;;;;;;;23.53;17.00;;;9.90;99.90;;;;;;4997731;28;20851;-81
2021/12/15 10:33:16;;;;;;;19.30;14.23;;;10.00;99.90;;;;;;5000308;28;20507;-78
2021/12/15 10:35:46;;;;;;;22.10;14.30;;;10.10;99.90;;;;;;4999321;28;20822;-83
2021/12/15 10:38:19;;;;;;;23.07;15.40;;;9.70;99.90;;;;;;4993314;28;20824;-77
2021/12/15 10:40:53;;;;;;;20.10;15.07;;;10.10;99.90;;;;;;4993151;28;20448;-80
2021/12/15 10:43:21;;;;;;;19.57;15.10;;;10.00;99.90;;;;;;5006898;28;21058;-78
2021/12/15 10:45:52;;;;;;;26.17;17.20;;;10.00;99.90;;;;;;4997924;28;20477;-80
2021/12/15 10:48:25;;;;;;;18.43;14.77;;;10.00;99.90;;;;;;4975995;28;20507;-80
2021/12/15 10:50:53;;;;;;;20.77;15.33;;;10.00;99.90;;;;;;4987896;28;20453;-80
2021/12/15 10:53:34;;;;;;;25.80;16.37;;;10.10;99.90;;;;;;4993390;28;20493;-80
2021/12/15 10:56:09;;;;;;;23.87;16.70;;;10.20;99.90;;;;;;4993192;28;20457;-79
2021/12/15 10:58:38;;;;;;;26.27;19.77;;;10.00;99.90;;;;;;4993263;28;20463;-80
2021/12/15 11:01:28;;;;;;;19.80;15.13;;;10.00;99.90;;;;;;4992945;28;20470;-79
2021/12/15 11:03:57;;;;;;;24.13;16.30;;;10.00;99.90;;;;;;4982920;28;20478;-79
2021/12/15 11:06:33;;;;;;;22.63;17.20;;;10.10;99.90;;;;;;4974453;28;20534;-80
2021/12/15 11:09:18;;;;;;;18.90;14.87;;;10.10;99.90;;;;;;4985156;28;20470;-77
2021/12/15 11:12:00;;;;;;;20.90;15.33;;;10.20;99.90;;;;;;4992545;28;20451;-79
2021/12/15 11:14:29;;;;;;;22.67;17.00;;;10.20;99.90;;;;;;4993017;28;20461;-79
2021/12/15 11:17:12;;;;;;;22.93;15.60;;;10.20;99.90;;;;;;4992806;28;21023;-79
2021/12/15 11:19:48;;;;;;;31.00;18.27;;;10.20;99.90;;;;;;4993295;28;20455;-78
2021/12/15 11:22:47;;;;;;;22.67;16.50;;;10.10;99.90;;;;;;4992652;28;20474;-78
2021/12/15 11:25:19;;;;;;;21.40;15.73;;;10.10;99.90;;;;;;4973962;28;21031;-83
2021/12/15 11:27:51;;;;;;;27.23;16.90;;;10.20;99.90;;;;;;4984422;28;20452;-79
2021/12/15 11:30:24;;;;;;;19.83;15.20;;;10.20;99.90;;;;;;4985419;28;20470;-82
2021/12/15 11:32:54;;;;;;;22.37;17.17;;;10.30;99.90;;;;;;4989926;28;20450;-79
2021/12/15 11:35:26;;;;;;;25.53;18.00;;;10.30;99.90;;;;;;4990901;28;20967;-79
2021/12/15 11:37:58;;;;;;;22.70;16.50;;;10.30;99.90;;;;;;4975762;28;20446;-80
2021/12/15 11:40:33;;;;;;;19.00;15.03;;;10.30;99.90;;;;;;4985499;28;20484;-79
2021/12/15 11:43:01;;;;;;;20.57;15.73;;;10.30;99.90;;;;;;4980356;28;20455;-79
2021/12/15 11:45:29;;;;;;;22.73;15.47;;;10.40;99.90;;;;;;4976491;28;20485;-79
2021/12/15 11:48:14;;;;;;;22.50;16.90;;;10.30;99.90;;;;;;4977063;28;20443;-78
2021/12/15 11:50:44;;;;;;;23.30;15.80;;;10.30;99.90;;;;;;4975091;28;20985;-79
2021/12/15 11:53:23;;;;;;;22.03;15.23;;;10.30;99.90;;;;;;4978760;28;20484;-79
2021/12/15 11:55:50;;;;;;;20.07;15.30;;;10.30;99.90;;;;;;4981581;28;20527;-80
2021/12/15 11:58:30;;;;;;;22.83;16.10;;;10.30;99.90;;;;;;4992613;28;20453;-79
2021/12/15 12:00:57;;;;;;;23.17;15.60;;;10.30;99.90;;;;;;4977655;28;20747;-78
2021/12/15 12:03:24;;;;;;;23.87;16.43;;;10.30;99.90;;;;;;4975072;28;20464;-77
2021/12/15 12:05:52;;;;;;;23.03;16.50;;;10.30;99.90;;;;;;4974587;28;20576;-79
2021/12/15 12:08:19;;;;;;;20.53;14.73;;;10.30;99.90;;;;;;4978606;28;20442;-79
2021/12/15 12:10:49;;;;;;;21.33;16.63;;;10.30;99.90;;;;;;4979504;28;20540;-80
2021/12/15 12:13:21;;;;;;;24.43;16.17;;;10.30;99.90;;;;;;4979242;28;20561;-79
2021/12/15 12:15:52;;;;;;;21.60;15.73;;;10.40;99.90;;;;;;4993455;28;20434;-78
2021/12/15 12:18:22;;;;;;;25.10;15.73;;;10.30;99.90;;;;;;5010059;28;20503;-79
2021/12/15 12:20:51;;;;;;;23.57;15.90;;;10.30;99.90;;;;;;5013973;28;20491;-80
2021/12/15 12:23:21;;;;;;;23.20;16.30;;;10.40;99.90;;;;;;4996834;28;20466;-79
2021/12/15 12:25:51;;;;;;;20.03;15.03;;;10.50;99.90;;;;;;4996692;28;20499;-78
2021/12/15 12:28:21;;;;;;;25.77;19.10;;;10.50;99.90;;;;;;4979890;28;20452;-77
2021/12/15 12:30:51;;;;;;;23.50;16.80;;;10.50;99.90;;;;;;4996540;28;21011;-76
2021/12/15 12:33:21;;;;;;;24.23;17.37;;;10.50;99.90;;;;;;4995887;28;20475;-78
2021/12/15 12:35:51;;;;;;;20.83;14.20;;;10.40;99.90;;;;;;4995591;28;20456;-78
2021/12/15 12:38:22;;;;;;;21.93;15.30;;;10.50;99.90;;;;;;4996519;28;20456;-78
2021/12/15 12:40:51;;;;;;;21.87;16.13;;;10.40;99.90;;;;;;4987874;28;20544;-77
2021/12/15 12:43:25;;;;;;;23.87;16.80;;;10.40;99.90;;;;;;4996290;28;20486;-79
2021/12/15 12:46:06;;;;;;;26.53;18.10;;;10.50;99.90;;;;;;4999113;28;20480;-77
2021/12/15 12:49:02;;;;;;;20.23;16.20;;;10.50;99.90;;;;;;4996822;28;20503;-79
2021/12/15 12:59:59;;;;;;;27.80;19.57;;;10.60;99.90;;;;;;4995677;28;20466;-80
2021/12/15 13:02:45;;;;;;;30.23;19.80;;;10.50;99.90;;;;;;4994609;28;20474;-79
2021/12/15 13:05:34;;;;;;;26.53;17.43;;;10.60;99.90;;;;;;4990153;28;20453;-79
2021/12/15 13:08:05;;;;;;;24.50;17.57;;;10.60;99.90;;;;;;4995282;28;20523;-78
2021/12/15 13:11:16;;;;;;;28.00;19.43;;;10.60;99.90;;;;;;4994618;28;20457;-80
2021/12/15 13:14:02;;;;;;;28.37;19.27;;;10.60;99.90;;;;;;4896479;29;20482;-80
2021/12/15 13:16:35;;;;;;;27.53;18.87;;;10.70;99.90;;;;;;4897475;29;20442;-79
2021/12/15 13:19:12;;;;;;;28.77;19.97;;;10.80;99.90;;;;;;4963032;28;20906;-78
2021/12/15 13:21:47;;;;;;;25.70;17.90;;;10.80;99.90;;;;;;4994350;28;20982;-79
2021/12/15 13:30:40;;;;;;;24.37;17.80;;;10.70;99.90;;;;;;4994038;28;20581;-81
2021/12/15 13:33:13;;;;;;;25.87;17.67;;;10.70;99.90;;;;;;4994434;28;20504;-79
2021/12/15 13:35:48;;;;;;;29.93;20.87;;;10.80;99.90;;;;;;4995990;28;20461;-78
2021/12/15 13:38:20;;;;;;;24.50;18.37;;;10.80;99.90;;;;;;5000853;28;20458;-80
2021/12/15 13:41:13;;;;;;;28.77;19.20;;;10.80;99.90;;;;;;5002308;28;20442;-79
2021/12/15 13:44:05;;;;;;;28.37;20.43;;;10.90;99.90;;;;;;4994145;28;20504;-78
2021/12/15 13:46:39;;;;;;;25.33;20.07;;;10.90;99.90;;;;;;4994005;28;20490;-78
2021/12/15 13:49:28;;;;;;;25.77;19.50;;;11.00;99.90;;;;;;4994677;28;20467;-79
2021/12/15 13:52:28;;;;;;;27.07;18.00;;;11.00;99.90;;;;;;4981154;28;20466;-78
2021/12/15 13:55:26;;;;;;;27.00;19.60;;;11.00;99.90;;;;;;4994388;28;20879;-78
2021/12/15 13:58:16;;;;;;;26.50;19.00;;;11.00;99.90;;;;;;4993951;28;20464;-79
2021/12/15 14:00:53;;;;;;;31.90;21.43;;;11.00;99.90;;;;;;4994083;28;20529;-78
2021/12/15 14:03:32;;;;;;;27.40;19.60;;;10.90;99.90;;;;;;4993589;28;20477;-80